Time;durP1;ratioP1;P1;durP2;ratioP2;P2;SDS_P1;SDS_P2;PMS_P1;PMS_P2;Temp;Humidity;BMP_temperature;BMP_pressure;BME280_temperature;BME280_humidity;BME280_pressure;Samples;Min_cycle;Max_cycle;Signal;HPM_P1;HPM_P2
2022/03/01 00:01:24;;;;;;;0.20;0.20;;;;;;;19.64;38.46;102497.28;5158630;27;20038;-37
2022/03/01 00:03:49;;;;;;;0.20;0.20;;;;;;;19.65;38.54;102501.75;5162678;27;20065;-36
2022/03/01 00:06:15;;;;;;;0.20;0.20;;;;;;;19.64;38.65;102500.06;5162459;27;20047;-37
2022/03/01 00:08:41;;;;;;;0.20;0.20;;;;;;;19.64;38.37;102498.13;5160838;27;20039;-37
2022/03/01 00:11:06;;;;;;;0.20;0.20;;;;;;;19.64;38.42;102508.34;5159016;27;20090;-37
2022/03/01 00:13:33;;;;;;;0.20;0.20;;;;;;;19.64;38.50;102505.56;5156706;27;20049;-39
2022/03/01 00:15:59;;;;;;;0.20;0.20;;;;;;;19.65;38.29;102504.50;5147955;27;20578;-40
2022/03/01 00:18:25;;;;;;;0.20;0.20;;;;;;;19.65;38.45;102507.28;5149238;27;20054;-40
2022/03/01 00:20:50;;;;;;;0.20;0.20;;;;;;;19.65;38.43;102504.50;5148093;27;20047;-39
2022/03/01 00:23:16;;;;;;;0.20;0.20;;;;;;;19.65;38.38;102510.03;5148193;27;20645;-39
2022/03/01 00:25:42;;;;;;;0.20;0.20;;;;;;;19.64;38.46;102502.81;5134168;27;20047;-37
2022/03/01 00:28:07;;;;;;;0.20;0.20;;;;;;;19.66;38.62;102495.97;5124601;28;20450;-37
2022/03/01 00:30:34;;;;;;;0.20;0.20;;;;;;;19.64;38.30;102489.81;5127550;28;20050;-40
2022/03/01 00:33:00;;;;;;;0.20;0.20;;;;;;;19.64;38.60;102486.22;5119239;28;20428;-39
2022/03/01 00:35:25;;;;;;;0.20;0.20;;;;;;;19.64;38.63;102477.94;5126240;28;20051;-37
2022/03/01 00:37:51;;;;;;;0.20;0.20;;;;;;;19.63;38.42;102477.09;5104851;28;20473;-37
2022/03/01 00:40:17;;;;;;;0.20;0.20;;;;;;;19.63;38.72;102470.75;5123226;28;20046;-39
2022/03/01 00:42:42;;;;;;;0.20;0.20;;;;;;;19.64;38.47;102472.41;5122861;28;20039;-38
2022/03/01 00:45:09;;;;;;;0.20;0.20;;;;;;;19.65;38.28;102474.13;5125310;28;20039;-38
2022/03/01 00:47:34;;;;;;;0.20;0.20;;;;;;;19.64;38.51;102476.00;5126176;28;20055;-36
2022/03/01 00:50:03;;;;;;;0.20;0.20;;;;;;;19.64;38.55;102478.78;5122216;28;20051;-37
2022/03/01 00:52:29;;;;;;;0.20;0.20;;;;;;;19.65;38.51;102474.13;5120896;28;20075;-38
2022/03/01 00:54:54;;;;;;;0.20;0.20;;;;;;;19.65;38.41;102479.63;5124034;28;20490;-37
2022/03/01 00:57:20;;;;;;;0.20;0.20;;;;;;;19.64;38.58;102473.25;5124778;28;20050;-38
2022/03/01 00:59:46;;;;;;;0.20;0.20;;;;;;;19.65;38.58;102483.25;5122850;28;20055;-39
2022/03/01 01:02:11;;;;;;;0.20;0.20;;;;;;;19.65;38.30;102480.47;5122806;28;20039;-38
2022/03/01 01:04:37;;;;;;;0.20;0.20;;;;;;;19.65;38.59;102483.25;5125792;28;20072;-37
2022/03/01 01:07:03;;;;;;;0.20;0.20;;;;;;;19.64;38.47;102476.00;5122217;28;20762;-38
2022/03/01 01:09:29;;;;;;;0.20;0.20;;;;;;;19.66;38.45;102476.63;5125204;27;20252;-36
2022/03/01 01:11:58;;;;;;;0.20;0.20;;;;;;;19.65;38.33;102471.34;5121664;28;20454;-38
2022/03/01 01:14:24;;;;;;;0.20;0.20;;;;;;;19.65;38.33;102468.59;5119539;28;20086;-39
2022/03/01 01:16:49;;;;;;;0.20;0.20;;;;;;;19.64;38.53;102464.97;5125284;28;20047;-38
2022/03/01 01:19:15;;;;;;;0.20;0.20;;;;;;;19.65;38.25;102466.66;5123741;28;20051;-39
2022/03/01 01:24:26;;;;;;;0.20;0.20;;;;;;;19.65;38.62;102463.91;5123305;27;20085;-38
2022/03/01 01:26:52;;;;;;;0.20;0.20;;;;;;;19.65;38.31;102457.53;5124586;28;20047;-40
2022/03/01 01:29:18;;;;;;;0.20;0.20;;;;;;;19.64;38.27;102464.97;5126244;28;20051;-39
2022/03/01 01:31:43;;;;;;;0.20;0.20;;;;;;;19.64;38.33;102466.88;5122505;28;20051;-39
2022/03/01 01:34:09;;;;;;;0.20;0.20;;;;;;;19.65;38.20;102463.91;5126117;28;20308;-38
2022/03/01 01:36:35;;;;;;;0.20;0.20;;;;;;;19.66;38.56;102464.72;5124894;28;20039;-37
2022/03/01 01:39:00;;;;;;;0.20;0.20;;;;;;;19.64;38.19;102459.44;5121141;28;20138;-36
2022/03/01 01:41:26;;;;;;;0.20;0.20;;;;;;;19.66;38.24;102450.91;5120841;28;20047;-39
2022/03/01 01:43:52;;;;;;;0.20;0.20;;;;;;;19.64;38.33;102464.13;5126508;28;20043;-37
2022/03/01 01:46:18;;;;;;;0.20;0.20;;;;;;;19.64;38.28;102470.47;5123131;28;20135;-39
2022/03/01 01:48:44;;;;;;;0.20;0.20;;;;;;;19.64;38.45;102458.59;5125335;28;20467;-39
2022/03/01 01:51:09;;;;;;;0.20;0.20;;;;;;;19.63;38.39;102455.00;5121100;28;20475;-39
2022/03/01 01:53:35;;;;;;;0.20;0.20;;;;;;;19.64;38.45;102455.81;5126728;28;20043;-37
2022/03/01 01:56:01;;;;;;;0.20;0.20;;;;;;;19.63;38.60;102457.75;5122951;28;20444;-38
2022/03/01 01:58:26;;;;;;;0.20;0.20;;;;;;;19.65;38.45;102452.00;5125192;28;20051;-38
2022/03/01 02:00:52;;;;;;;0.20;0.20;;;;;;;19.64;38.33;102450.31;5121926;28;20046;-38
2022/03/01 02:03:18;;;;;;;0.20;0.20;;;;;;;19.64;38.16;102442.84;5124732;28;20053;-39
2022/03/01 02:05:44;;;;;;;0.20;0.20;;;;;;;19.65;38.19;102455.59;5120614;28;20047;-36
2022/03/01 02:08:10;;;;;;;0.20;0.20;;;;;;;19.64;38.54;102453.91;5121475;28;20061;-37
2022/03/01 02:10:35;;;;;;;0.20;0.20;;;;;;;19.66;38.04;102450.91;5122143;28;20125;-37
2022/03/01 02:13:01;;;;;;;0.20;0.20;;;;;;;19.64;38.56;102453.91;5121629;28;20058;-39
2022/03/01 02:15:27;;;;;;;0.20;0.20;;;;;;;19.65;38.27;102457.53;5120533;28;20058;-40
2022/03/01 02:17:53;;;;;;;0.20;0.20;;;;;;;19.64;38.40;102464.13;5121931;28;20032;-39
2022/03/01 02:20:21;;;;;;;0.20;0.20;;;;;;;19.64;38.47;102462.19;5124776;28;20043;-38
2022/03/01 02:22:52;;;;;;;0.20;0.20;;;;;;;19.64;38.15;102466.88;5103783;28;20334;-39
2022/03/01 02:25:18;;;;;;;0.20;0.20;;;;;;;19.64;38.28;102462.19;5121278;27;20039;-39
2022/03/01 02:27:44;;;;;;;0.20;0.20;;;;;;;19.66;38.28;102461.97;5123847;28;20423;-38
2022/03/01 02:30:10;;;;;;;0.20;0.20;;;;;;;19.64;38.43;102464.97;5123173;28;20035;-36
2022/03/01 02:32:37;;;;;;;0.20;0.20;;;;;;;19.64;38.20;102464.97;5104472;28;20738;-38
2022/03/01 02:35:04;;;;;;;0.20;0.20;;;;;;;19.63;38.38;102452.22;5121697;28;20039;-39
2022/03/01 02:37:32;;;;;;;0.20;0.20;;;;;;;19.63;38.20;102451.41;5121386;28;20051;-37
2022/03/01 02:39:58;;;;;;;0.20;0.20;;;;;;;19.63;38.19;102446.69;5122397;28;20031;-39
2022/03/01 02:42:27;;;;;;;0.20;0.20;;;;;;;19.64;38.39;102444.78;5121375;28;20124;-36
2022/03/01 02:44:52;;;;;;;0.20;0.20;;;;;;;19.62;38.37;102450.56;5123237;28;20486;-37
2022/03/01 02:47:18;;;;;;;0.20;0.20;;;;;;;19.64;38.45;102448.38;5121693;28;20085;-37
2022/03/01 02:49:44;;;;;;;0.20;0.20;;;;;;;19.64;38.52;102451.13;5122391;28;20085;-40
2022/03/01 02:52:10;;;;;;;0.20;0.20;;;;;;;19.65;38.17;102452.00;5119821;28;20320;-40
2022/03/01 02:54:35;;;;;;;0.20;0.20;;;;;;;19.64;38.55;102437.31;5123157;28;20079;-38
2022/03/01 02:57:02;;;;;;;0.20;0.20;;;;;;;19.65;38.50;102427.13;5122552;28;20058;-37
2022/03/01 02:59:28;;;;;;;0.20;0.20;;;;;;;19.63;38.24;102430.13;5124867;28;20078;-37
2022/03/01 03:01:55;;;;;;;0.20;0.20;;;;;;;19.63;38.13;102432.06;5117609;28;20071;-38
2022/03/01 03:04:22;;;;;;;0.20;0.20;;;;;;;19.66;37.95;102428.81;5103924;28;20043;-40
2022/03/01 03:06:48;;;;;;;0.20;0.20;;;;;;;19.65;38.38;102435.41;5124140;28;20067;-37
2022/03/01 03:09:13;;;;;;;0.20;0.20;;;;;;;19.66;38.42;102431.56;5120464;28;20421;-39
2022/03/01 03:11:41;;;;;;;0.20;0.20;;;;;;;19.65;38.01;102443.72;5121193;28;20047;-39
2022/03/01 03:14:07;;;;;;;0.20;0.20;;;;;;;19.63;38.32;102435.66;5118056;28;20066;-37
2022/03/01 03:16:33;;;;;;;0.20;0.20;;;;;;;19.64;38.14;102434.56;5121647;28;20544;-39
2022/03/01 03:18:58;;;;;;;0.20;0.20;;;;;;;19.65;38.37;102432.66;5122233;28;20039;-37
2022/03/01 03:21:24;;;;;;;0.20;0.20;;;;;;;19.64;38.04;102428.19;5117844;28;20138;-39
2022/03/01 03:23:50;;;;;;;0.20;0.20;;;;;;;19.64;38.40;102430.94;5120105;28;20035;-39
2022/03/01 03:26:15;;;;;;;0.20;0.20;;;;;;;19.63;38.32;102437.56;5120332;28;20052;-36
2022/03/01 03:28:41;;;;;;;0.20;0.20;;;;;;;19.63;38.23;102432.06;5124671;28;20079;-37
2022/03/01 03:31:07;;;;;;;0.20;0.20;;;;;;;19.63;38.06;102432.06;5119744;28;20095;-40
2022/03/01 03:33:32;;;;;;;0.20;0.20;;;;;;;19.62;38.11;102436.75;5122391;28;20077;-39
2022/03/01 03:35:58;;;;;;;0.20;0.20;;;;;;;19.64;38.26;102433.72;5119836;28;20043;-36
2022/03/01 03:38:25;;;;;;;0.20;0.20;;;;;;;19.64;38.10;102436.47;5105975;28;20048;-39
2022/03/01 03:40:51;;;;;;;0.20;0.20;;;;;;;19.64;38.35;102428.19;5104264;28;20047;-40
2022/03/01 03:43:17;;;;;;;0.20;0.20;;;;;;;19.64;38.31;102430.94;5124144;28;20134;-38
2022/03/01 03:45:43;;;;;;;0.20;0.20;;;;;;;19.63;38.26;102432.06;5121585;28;20043;-40
2022/03/01 03:48:09;;;;;;;0.20;0.20;;;;;;;19.63;38.06;102430.13;5121714;27;20061;-37
2022/03/01 03:50:34;;;;;;;0.20;0.20;;;;;;;19.62;38.18;102420.16;5124705;28;20047;-39
2022/03/01 03:53:00;;;;;;;0.20;0.20;;;;;;;19.64;38.30;102412.44;5106960;28;20433;-37
2022/03/01 03:55:26;;;;;;;0.20;0.20;;;;;;;19.63;38.17;102412.69;5124295;28;20269;-40
2022/03/01 03:57:54;;;;;;;;;;;;;;;19.64;38.01;102415.22;5125786;28;20475;-38
2022/03/01 04:00:20;;;;;;;0.20;0.20;;;;;;;19.62;38.37;102411.03;5123523;28;19984;-41
2022/03/01 04:02:51;;;;;;;0.20;0.20;;;;;;;19.63;38.27;102415.47;5122945;28;20046;-40
2022/03/01 04:05:18;;;;;;;0.20;0.20;;;;;;;19.62;38.17;102420.16;5124582;27;20293;-40
2022/03/01 04:07:45;;;;;;;0.20;0.20;;;;;;;19.63;38.43;102421.00;5107654;28;20082;-37
2022/03/01 04:10:11;;;;;;;0.20;0.20;;;;;;;19.63;38.17;102419.06;5121460;28;20035;-37
2022/03/01 04:12:37;;;;;;;0.20;0.20;;;;;;;19.64;38.03;102428.19;5123557;28;20054;-36
2022/03/01 04:15:04;;;;;;;0.20;0.20;;;;;;;19.63;38.03;102421.00;5118978;28;20043;-39
2022/03/01 04:17:30;;;;;;;0.20;0.20;;;;;;;19.63;38.36;102423.75;5126580;28;20362;-38
2022/03/01 04:19:56;;;;;;;0.20;0.20;;;;;;;19.64;37.91;102422.66;5126128;28;20070;-37
2022/03/01 04:22:22;;;;;;;0.20;0.20;;;;;;;19.64;38.18;102417.13;5124841;28;20377;-39
2022/03/01 04:24:47;;;;;;;0.20;0.20;;;;;;;19.64;38.39;102415.22;5125885;28;20054;-38
2022/03/01 04:27:13;;;;;;;0.20;0.20;;;;;;;19.63;37.97;102418.22;5126910;28;20924;-38
2022/03/01 04:29:39;;;;;;;0.20;0.20;;;;;;;19.64;38.22;102425.44;5126591;28;20043;-39
2022/03/01 04:32:05;;;;;;;0.20;0.20;;;;;;;19.64;38.13;102417.13;5119545;28;20051;-40
2022/03/01 04:34:30;;;;;;;0.20;0.20;;;;;;;19.63;38.21;102424.59;5121268;28;20043;-37
2022/03/01 04:36:56;;;;;;;0.20;0.20;;;;;;;19.63;37.98;102421.84;5124085;28;20048;-40
2022/03/01 04:39:22;;;;;;;0.20;0.20;;;;;;;19.63;38.00;102421.84;5124489;28;20366;-40
2022/03/01 04:41:48;;;;;;;0.20;0.20;;;;;;;19.62;38.31;102420.16;5123622;28;20051;-39
2022/03/01 04:44:14;;;;;;;0.20;0.20;;;;;;;19.62;38.17;102420.16;5125970;28;20511;-39
2022/03/01 04:46:41;;;;;;;0.20;0.20;;;;;;;19.64;38.00;102425.44;5124701;28;20439;-38
2022/03/01 04:49:09;;;;;;;0.20;0.20;;;;;;;19.63;38.03;102432.88;5123054;28;20480;-38
2022/03/01 04:51:35;;;;;;;0.20;0.20;;;;;;;19.63;38.19;102427.34;5122334;28;20047;-39
2022/03/01 04:54:01;;;;;;;0.20;0.20;;;;;;;19.65;38.11;102418.84;5124407;28;20044;-40
2022/03/01 04:56:27;;;;;;;0.20;0.20;;;;;;;19.64;37.91;102422.66;5126768;28;20035;-38
2022/03/01 04:58:53;;;;;;;0.20;0.20;;;;;;;19.63;38.26;102416.31;5122369;27;20040;-38
2022/03/01 05:01:18;;;;;;;0.20;0.20;;;;;;;19.62;38.05;102416.56;5122853;28;20050;-37
2022/03/01 05:03:44;;;;;;;0.20;0.20;;;;;;;19.62;38.28;102414.63;5127702;28;20043;-35
2022/03/01 05:06:10;;;;;;;0.20;0.20;;;;;;;19.62;38.18;102411.88;5124566;28;20039;-39
2022/03/01 05:08:35;;;;;;;0.20;0.20;;;;;;;19.61;38.04;102412.13;5128717;27;20061;-39
2022/03/01 05:11:02;;;;;;;0.20;0.20;;;;;;;19.63;38.20;102421.00;5121221;28;20039;-39
2022/03/01 05:13:28;;;;;;;0.20;0.20;;;;;;;19.62;38.15;102417.41;5105615;28;20755;-39
2022/03/01 05:15:54;;;;;;;0.20;0.20;;;;;;;19.63;38.05;102427.34;5122646;28;20061;-36
2022/03/01 05:18:21;;;;;;;0.20;0.20;;;;;;;19.64;37.91;102425.44;5125419;28;20405;-37
2022/03/01 05:20:47;;;;;;;0.20;0.20;;;;;;;19.63;38.05;102427.34;5125776;28;20209;-38
2022/03/01 05:23:13;;;;;;;0.20;0.20;;;;;;;19.62;37.99;102435.91;5120465;28;20406;-36
2022/03/01 05:25:39;;;;;;;0.20;0.20;;;;;;;19.62;38.06;102430.38;5117680;28;20047;-38
2022/03/01 05:28:04;;;;;;;0.20;0.20;;;;;;;19.64;38.00;102433.72;5125215;28;20058;-39
2022/03/01 05:30:30;;;;;;;0.20;0.20;;;;;;;19.63;38.26;102438.41;5124924;28;20054;-40
2022/03/01 05:32:56;;;;;;;0.20;0.20;;;;;;;19.63;38.19;102443.09;5121559;28;20043;-36
2022/03/01 05:35:24;;;;;;;0.25;0.25;;;;;;;19.64;38.15;102436.47;5125251;28;20043;-38
2022/03/01 05:37:52;;;;;;;0.20;0.20;;;;;;;19.60;38.08;102430.56;5103772;28;20188;-37
2022/03/01 05:40:19;;;;;;;0.20;0.20;;;;;;;19.61;38.27;102435.06;5125365;28;20045;-38
2022/03/01 05:42:45;;;;;;;0.20;0.20;;;;;;;19.63;38.04;102434.81;5123319;28;20119;-37
2022/03/01 05:45:11;;;;;;;0.20;0.20;;;;;;;19.61;38.14;102440.59;5120975;28;20051;-39
2022/03/01 05:47:38;;;;;;;0.20;0.20;;;;;;;19.62;37.85;102433.97;5124563;28;20585;-39
2022/03/01 05:50:04;;;;;;;0.20;0.20;;;;;;;19.62;37.78;102444.19;5125050;28;20174;-38
2022/03/01 05:52:29;;;;;;;0.20;0.20;;;;;;;19.62;38.11;102438.66;5119414;28;20047;-37
2022/03/01 05:54:55;;;;;;;0.20;0.20;;;;;;;19.63;37.81;102443.09;5119577;28;20042;-38
2022/03/01 05:57:24;;;;;;;0.20;0.20;;;;;;;19.64;38.01;102442.00;5125458;28;20374;-37
2022/03/01 05:59:49;;;;;;;0.20;0.20;;;;;;;19.64;37.91;102442.84;5120059;28;20075;-37
2022/03/01 06:02:15;;;;;;;0.20;0.20;;;;;;;19.63;37.78;102441.19;5118390;28;20051;-38
2022/03/01 06:04:41;;;;;;;0.20;0.20;;;;;;;19.63;38.07;102440.34;5124732;28;20047;-38
2022/03/01 06:07:06;;;;;;;0.20;0.20;;;;;;;19.64;38.04;102437.31;5124086;28;20054;-38
2022/03/01 06:09:32;;;;;;;0.20;0.20;;;;;;;19.64;37.79;102442.00;5123109;27;20043;-36
2022/03/01 06:11:58;;;;;;;0.20;0.20;;;;;;;19.63;38.19;102443.09;5119276;27;20084;-37
2022/03/01 06:14:23;;;;;;;0.13;0.13;;;;;;;19.63;38.05;102434.81;5124925;28;20393;-38
2022/03/01 06:16:49;;;;;;;0.20;0.20;;;;;;;19.64;38.02;102445.59;5122853;28;20047;-37
2022/03/01 06:19:15;;;;;;;0.20;0.20;;;;;;;19.64;37.95;102442.00;5123462;28;20043;-37
2022/03/01 06:21:40;;;;;;;0.20;0.20;;;;;;;19.64;38.02;102433.72;5121495;28;20046;-38
2022/03/01 06:24:06;;;;;;;0.20;0.20;;;;;;;19.63;38.05;102441.19;5124582;28;20043;-38
2022/03/01 06:26:33;;;;;;;0.20;0.20;;;;;;;19.62;37.97;102433.97;5123680;28;20122;-38
2022/03/01 06:28:59;;;;;;;0.20;0.20;;;;;;;19.64;38.05;102434.56;5121985;28;20099;-38
2022/03/01 06:31:25;;;;;;;0.20;0.20;;;;;;;19.62;38.07;102427.63;5120643;28;20047;-37
2022/03/01 06:33:50;;;;;;;0.20;0.20;;;;;;;19.63;37.89;102430.13;5124503;28;20050;-38
2022/03/01 06:36:17;;;;;;;0.20;0.20;;;;;;;19.63;38.07;102432.88;5122720;28;20083;-38
2022/03/01 06:38:43;;;;;;;0.30;0.30;;;;;;;19.62;38.06;102441.44;5122649;28;20058;-40
2022/03/01 06:41:11;;;;;;;0.20;0.20;;;;;;;19.63;37.70;102443.09;5121508;28;20425;-37
2022/03/01 06:43:36;;;;;;;0.20;0.20;;;;;;;19.63;37.85;102443.94;5122326;27;20053;-39
2022/03/01 06:46:02;;;;;;;0.20;0.20;;;;;;;19.62;37.86;102444.19;5120007;28;20555;-36
2022/03/01 06:48:28;;;;;;;0.20;0.20;;;;;;;19.62;38.11;102446.97;5122914;28;20070;-38
2022/03/01 06:50:53;;;;;;;0.20;0.20;;;;;;;19.62;38.09;102453.31;5119407;28;20046;-35
2022/03/01 06:53:19;;;;;;;0.20;0.20;;;;;;;19.62;38.12;102438.66;5123298;28;20043;-37
2022/03/01 06:55:45;;;;;;;0.30;0.30;;;;;;;19.62;38.05;102450.56;5122128;28;20469;-38
2022/03/01 06:58:11;;;;;;;0.20;0.20;;;;;;;19.63;37.84;102445.88;5122606;28;20141;-37
2022/03/01 07:00:37;;;;;;;0.20;0.20;;;;;;;19.63;38.04;102438.41;5123214;28;20172;-37
2022/03/01 07:03:03;;;;;;;0.20;0.20;;;;;;;19.63;37.60;102438.41;5122746;28;20054;-36
2022/03/01 07:05:29;;;;;;;0.20;0.20;;;;;;;19.63;37.95;102434.81;5119987;28;20509;-38
2022/03/01 07:07:54;;;;;;;0.20;0.20;;;;;;;19.70;38.15;102439.09;5122413;27;20054;-39
2022/03/01 07:10:23;;;;;;;0.20;0.20;;;;;;;19.74;37.95;102437.53;5118446;27;20046;-39
2022/03/01 07:12:49;;;;;;;0.20;0.20;;;;;;;19.75;38.03;102435.59;5121143;28;20047;-38
2022/03/01 07:15:15;;;;;;;0.20;0.20;;;;;;;19.72;38.06;102436.91;5122687;28;20392;-37
2022/03/01 07:17:44;;;;;;;0.20;0.20;;;;;;;19.72;38.08;102430.56;5122577;28;20046;-38
2022/03/01 07:20:11;;;;;;;0.20;0.20;;;;;;;19.71;38.14;102434.41;5103833;28;21910;-36
2022/03/01 07:22:37;;;;;;;0.20;0.20;;;;;;;19.72;38.20;102436.09;5121646;27;20082;-39
2022/03/01 07:25:03;;;;;;;0.20;0.20;;;;;;;19.73;38.14;102435.84;5128377;28;20057;-38
2022/03/01 07:27:28;;;;;;;0.20;0.20;;;;;;;19.71;38.17;102443.53;5124079;28;20066;-39
2022/03/01 07:29:55;;;;;;;0.20;0.20;;;;;;;19.72;38.01;102447.16;5125971;28;20418;-37
2022/03/01 07:32:20;;;;;;;0.20;0.20;;;;;;;19.74;37.90;102445.00;5124418;28;20089;-37
2022/03/01 07:34:46;;;;;;;0.20;0.20;;;;;;;19.73;37.97;102446.91;5121477;28;20039;-37
2022/03/01 07:37:12;;;;;;;0.20;0.20;;;;;;;19.74;37.88;102456.03;5123371;28;20701;-39
2022/03/01 07:39:37;;;;;;;0.20;0.20;;;;;;;19.74;37.86;102456.03;5125088;28;20078;-37
2022/03/01 07:42:04;;;;;;;0.20;0.20;;;;;;;19.75;38.17;102458.56;5120479;28;20151;-39
2022/03/01 07:44:30;;;;;;;0.20;0.20;;;;;;;19.76;38.10;102459.38;5122962;27;20055;-38
2022/03/01 07:46:56;;;;;;;0.20;0.20;;;;;;;19.74;37.94;102451.34;5120520;27;20046;-39
2022/03/01 07:49:22;;;;;;;0.20;0.20;;;;;;;19.76;38.15;102451.09;5121322;28;20521;-40
2022/03/01 07:51:50;;;;;;;0.20;0.20;;;;;;;19.75;37.87;102450.25;5119302;28;20075;-34
2022/03/01 07:54:16;;;;;;;0.20;0.20;;;;;;;19.77;38.08;102447.22;5112452;27;20047;-37
2022/03/01 07:56:43;;;;;;;0.20;0.20;;;;;;;19.78;37.77;102448.94;5116887;28;20043;-39
2022/03/01 07:59:08;;;;;;;0.20;0.20;;;;;;;19.78;38.02;102451.69;5117434;28;20050;-38
2022/03/01 08:01:34;;;;;;;0.20;0.20;;;;;;;19.79;37.55;102461.66;5109329;27;20131;-38
2022/03/01 08:04:00;;;;;;;0.20;0.20;;;;;;;19.79;37.86;102458.91;5113648;28;20160;-39
2022/03/01 08:06:26;;;;;;;0.20;0.20;;;;;;;19.79;37.65;102456.13;5119440;27;20474;-39
2022/03/01 08:08:52;;;;;;;0.20;0.20;;;;;;;19.80;37.46;102455.88;5116258;27;20291;-39
2022/03/01 08:11:18;;;;;;;0.20;0.20;;;;;;;19.80;37.68;102455.03;5112413;27;20390;-40
2022/03/01 08:13:43;;;;;;;0.20;0.20;;;;;;;19.80;37.66;102450.34;5107620;27;20047;-40
2022/03/01 08:16:12;;;;;;;0.20;0.20;;;;;;;19.81;37.54;102456.72;5122011;27;20073;-40
2022/03/01 08:18:38;;;;;;;0.20;0.20;;;;;;;19.82;37.67;102452.88;5116739;27;20039;-39
2022/03/01 08:21:06;;;;;;;0.20;0.20;;;;;;;19.83;37.64;102456.47;5116077;27;20465;-40
2022/03/01 08:23:31;;;;;;;;;;;;;;;19.83;37.60;102460.09;5117783;28;20087;-40
2022/03/01 08:25:58;;;;;;;0.20;0.20;;;;;;;19.83;37.56;102459.25;5115500;27;19928;-40
2022/03/01 08:28:25;;;;;;;0.20;0.20;;;;;;;19.85;37.80;102462.59;5120382;27;20051;-40
2022/03/01 08:30:52;;;;;;;0.20;0.20;;;;;;;19.84;37.75;102460.91;5101471;28;20055;-39
2022/03/01 08:33:20;;;;;;;0.20;0.20;;;;;;;19.85;37.40;102462.59;5116291;27;20082;-38
2022/03/01 08:35:45;;;;;;;0.20;0.20;;;;;;;19.85;37.45;102471.72;5112496;27;20070;-39
2022/03/01 08:38:11;;;;;;;0.20;0.20;;;;;;;19.83;38.05;102462.84;5118650;27;20086;-38
2022/03/01 08:40:38;;;;;;;0.20;0.20;;;;;;;19.84;37.92;102464.50;5119206;27;20051;-39
2022/03/01 08:43:05;;;;;;;0.20;0.20;;;;;;;19.84;37.83;102463.69;5116427;28;20051;-39
2022/03/01 08:45:31;;;;;;;0.20;0.20;;;;;;;19.85;37.56;102468.13;5118683;27;20089;-40
2022/03/01 08:47:57;;;;;;;0.20;0.20;;;;;;;19.85;37.28;102470.88;5117672;28;20464;-39
2022/03/01 08:50:23;;;;;;;0.20;0.20;;;;;;;19.84;37.55;102475.56;5094977;28;20087;-40
2022/03/01 08:53:07;;;;;;;0.20;0.20;;;;;;;19.86;37.89;102478.94;5117938;28;20569;-39
2022/03/01 08:55:34;;;;;;;0.20;0.20;;;;;;;19.86;37.90;102476.19;5117500;28;20055;-38
2022/03/01 08:58:00;;;;;;;0.20;0.20;;;;;;;19.85;37.34;102480.00;5099744;27;20035;-39
2022/03/01 09:00:27;;;;;;;0.20;0.20;;;;;;;19.85;37.85;102488.31;5097826;28;20051;-38
2022/03/01 09:02:53;;;;;;;0.20;0.20;;;;;;;19.85;37.73;102498.53;5117635;27;20439;-39
2022/03/01 09:05:19;;;;;;;0.20;0.20;;;;;;;19.86;37.44;102502.97;5119104;27;20305;-39
2022/03/01 09:07:45;;;;;;;0.20;0.20;;;;;;;19.85;37.59;102496.59;5117630;27;20050;-40
2022/03/01 09:10:10;;;;;;;0.20;0.20;;;;;;;19.85;37.64;102493.84;5122322;27;20405;-39
2022/03/01 09:12:36;;;;;;;0.20;0.20;;;;;;;19.85;37.75;102470.88;5121362;28;20101;-40
2022/03/01 09:15:04;;;;;;;0.20;0.20;;;;;;;19.83;37.63;102470.31;5100911;28;20126;-40
2022/03/01 09:17:29;;;;;;;0.20;0.20;;;;;;;19.84;37.52;102456.22;5118992;27;20478;-39
2022/03/01 09:19:55;;;;;;;0.20;0.20;;;;;;;19.84;37.66;102463.69;5102047;27;20283;-39
2022/03/01 09:22:21;;;;;;;0.20;0.20;;;;;;;19.84;37.81;102464.50;5115380;27;20130;-39
2022/03/01 09:24:46;;;;;;;0.20;0.20;;;;;;;19.83;37.38;102465.59;5119076;27;20139;-39
2022/03/01 09:27:12;;;;;;;0.20;0.20;;;;;;;19.84;37.85;102463.69;5115967;27;20047;-40
2022/03/01 09:29:38;;;;;;;0.20;0.20;;;;;;;19.85;37.78;102460.66;5113620;27;20056;-40
2022/03/01 09:32:04;;;;;;;0.20;0.20;;;;;;;19.84;37.68;102464.50;5116945;28;20078;-39
2022/03/01 09:34:30;;;;;;;0.20;0.20;;;;;;;19.83;37.73;102465.59;5113370;27;20051;-38
2022/03/01 09:36:56;;;;;;;0.20;0.20;;;;;;;19.84;37.33;102469.22;5115105;27;20142;-38
2022/03/01 09:39:22;;;;;;;0.20;0.20;;;;;;;19.83;37.46;102479.44;5099930;28;20054;-37
2022/03/01 09:41:48;;;;;;;0.20;0.20;;;;;;;19.84;37.84;102477.50;5118055;27;20691;-38
2022/03/01 09:44:15;;;;;;;0.20;0.20;;;;;;;19.84;37.54;102466.44;5118485;27;20499;-37
2022/03/01 09:46:43;;;;;;;0.20;0.20;;;;;;;19.84;37.57;102477.50;5111798;27;20138;-37
2022/03/01 09:49:10;;;;;;;0.20;0.20;;;;;;;19.82;37.38;102477.75;5117114;27;20598;-39
2022/03/01 09:51:39;;;;;;;0.20;0.20;;;;;;;19.83;37.72;102478.59;5097619;28;20079;-39
2022/03/01 09:54:05;;;;;;;0.20;0.20;;;;;;;19.83;37.47;102473.06;5123986;27;20474;-40
2022/03/01 09:56:30;;;;;;;0.20;0.20;;;;;;;19.82;37.60;102468.59;5097377;27;20132;-39
2022/03/01 09:58:57;;;;;;;0.20;0.20;;;;;;;19.83;37.51;102473.91;5118603;27;20066;-39
2022/03/01 10:01:24;;;;;;;0.20;0.20;;;;;;;19.83;37.71;102475.84;5114602;28;20047;-39
2022/03/01 10:03:51;;;;;;;0.20;0.20;;;;;;;19.83;37.46;102473.06;5108244;27;20112;-39
2022/03/01 10:06:21;;;;;;;0.20;0.20;;;;;;;19.83;37.46;102478.59;5092084;27;20135;-39
2022/03/01 10:08:55;;;;;;;0.20;0.20;;;;;;;19.82;37.42;102490.72;5114021;27;20286;-40
2022/03/01 10:11:21;;;;;;;0.20;0.20;;;;;;;19.80;37.65;102494.56;5114210;27;20081;-39
2022/03/01 10:13:47;;;;;;;0.20;0.20;;;;;;;19.82;37.55;102485.19;5107140;27;20050;-37
2022/03/01 10:16:16;;;;;;;0.20;0.20;;;;;;;19.81;37.51;102489.88;5116855;27;20043;-39
2022/03/01 10:18:48;;;;;;;0.20;0.20;;;;;;;19.80;37.43;102480.75;5091273;27;20493;-39
2022/03/01 10:21:14;;;;;;;0.20;0.20;;;;;;;19.81;37.56;102484.34;5114627;27;20442;-38
2022/03/01 10:23:50;;;;;;;0.20;0.20;;;;;;;19.81;37.45;102478.81;5118613;27;20070;-38
2022/03/01 10:26:20;;;;;;;0.20;0.20;;;;;;;19.80;37.54;102478.00;5110420;27;20078;-39
2022/03/01 10:28:47;;;;;;;0.20;0.20;;;;;;;19.80;37.59;102479.91;5095054;27;20100;-39
2022/03/01 10:31:22;;;;;;;0.20;0.20;;;;;;;19.80;37.74;102490.97;5113960;27;20090;-38
2022/03/01 10:33:54;;;;;;;0.20;0.20;;;;;;;19.79;37.62;102487.38;5115119;27;20278;-40
2022/03/01 10:36:22;;;;;;;0.20;0.20;;;;;;;19.80;37.71;102477.16;5112436;27;20113;-38
2022/03/01 10:38:57;;;;;;;0.20;0.20;;;;;;;19.80;37.78;102489.03;5109093;27;20795;-40
2022/03/01 10:41:27;;;;;;;0.17;0.17;;;;;;;19.82;37.65;102490.72;5110233;27;20497;-40
2022/03/01 10:43:54;;;;;;;0.20;0.20;;;;;;;19.80;37.59;102502.88;5109495;27;20096;-38
2022/03/01 10:46:20;;;;;;;0.20;0.20;;;;;;;19.80;37.70;102497.34;5111978;27;20077;-40
2022/03/01 10:48:46;;;;;;;0.20;0.20;;;;;;;19.80;37.68;102488.22;5116307;27;20096;-39
2022/03/01 10:51:13;;;;;;;0.20;0.20;;;;;;;19.79;37.60;102495.66;5110716;27;20047;-39
2022/03/01 10:53:41;;;;;;;0.20;0.20;;;;;;;19.82;37.35;102499.00;5115078;27;20103;-39
2022/03/01 10:56:09;;;;;;;0.20;0.20;;;;;;;19.79;37.55;102494.84;5115008;27;20047;-40
2022/03/01 10:58:36;;;;;;;0.20;0.20;;;;;;;19.80;37.59;102490.97;5113760;27;20062;-39
2022/03/01 11:01:03;;;;;;;0.20;0.20;;;;;;;19.80;37.68;102499.28;5093048;28;20054;-40
2022/03/01 11:03:30;;;;;;;0.20;0.20;;;;;;;19.79;37.63;102490.13;5111736;27;20444;-39
2022/03/01 11:05:56;;;;;;;0.20;0.20;;;;;;;19.80;37.76;102485.44;5108564;27;20055;-40
2022/03/01 11:08:35;;;;;;;0.20;0.20;;;;;;;19.80;37.43;102489.03;5117063;27;20096;-38
2022/03/01 11:11:04;;;;;;;0.20;0.20;;;;;;;19.80;37.93;102479.91;5077164;27;20778;-39
2022/03/01 11:13:32;;;;;;;0.20;0.20;;;;;;;19.81;37.77;102473.28;5111457;27;20074;-40
2022/03/01 11:16:37;;;;;;;0.20;0.20;;;;;;;19.82;37.67;102482.44;5111820;27;20075;-38
2022/03/01 11:19:28;;;;;;;0.20;0.20;;;;;;;19.82;37.72;102479.66;5093202;27;20092;-39
2022/03/01 11:21:54;;;;;;;0.20;0.20;;;;;;;19.79;37.55;102473.56;5092162;28;20135;-39
2022/03/01 11:24:21;;;;;;;0.20;0.20;;;;;;;19.80;37.69;102471.63;5112649;27;20421;-40
2022/03/01 11:26:47;;;;;;;0.20;0.20;;;;;;;19.81;37.76;102462.25;5112029;27;20973;-38